createdAt,value
2022-08-10T00:02:18.103Z,100180.41
2022-08-10T00:04:48.828Z,100173.47
2022-08-10T00:07:20.246Z,100179.16
2022-08-10T00:09:53.559Z,100181.59
2022-08-10T00:12:24.094Z,100171.84
2022-08-10T00:15:53.142Z,100173.13
2022-08-10T00:18:08.052Z,100169.09
2022-08-10T00:20:39.228Z,100165.81
2022-08-10T00:23:10.751Z,100155.22
2022-08-10T00:25:43.736Z,100164.56
2022-08-10T00:28:15.034Z,100159.66
2022-08-10T00:30:45.110Z,100160.47
2022-08-10T00:33:15.794Z,100157.63
2022-08-10T00:35:46.765Z,100152.72
2022-08-10T00:38:17.738Z,100154.34
2022-08-10T00:40:51.267Z,100153.53
2022-08-10T00:43:23.751Z,100153.53
2022-08-10T00:45:58.484Z,100160.03
2022-08-10T00:48:33.718Z,100153.53
2022-08-10T00:51:05.179Z,100156.38
2022-08-10T00:53:36.432Z,100158.88
2022-08-10T00:57:14.399Z,100155.22
2022-08-10T00:59:01.597Z,100157.69
2022-08-10T01:02:10.045Z,100157.69
2022-08-10T01:04:58.063Z,100154.50
2022-08-10T01:07:59.546Z,100162.66
2022-08-10T01:10:43.801Z,100162.28
2022-08-10T01:13:27.779Z,100164.78
2022-08-10T01:16:06.836Z,100159.53
2022-08-10T01:18:53.458Z,100164.84
2022-08-10T01:22:00.360Z,100166.53
2022-08-10T01:25:29.798Z,100173.53
2022-08-10T01:28:19.114Z,100168.69
2022-08-10T01:30:58.480Z,100179.28
2022-08-10T01:33:58.961Z,100182.16
2022-08-10T01:36:35.439Z,100170.78
2022-08-10T01:39:09.953Z,100167.56
2022-08-10T01:41:48.163Z,100161.03
2022-08-10T01:44:35.583Z,100170.81
2022-08-10T01:47:34.698Z,100172.06
2022-08-10T01:50:21.508Z,100177.41
2022-08-10T01:52:58.362Z,100186.38
2022-08-10T01:55:31.727Z,100186.00
2022-08-10T01:58:08.343Z,100180.75
2022-08-10T02:00:47.057Z,100186.88
2022-08-10T02:03:23.709Z,100179.19
2022-08-10T02:06:01.067Z,100180.00
2022-08-10T02:08:36.480Z,100179.19
2022-08-10T02:11:13.332Z,100191.03
2022-08-10T02:13:49.429Z,100178.03
2022-08-10T02:16:24.646Z,100183.34
2022-08-10T02:19:01.316Z,100182.56
2022-08-10T02:21:34.860Z,100179.72
2022-08-10T02:24:09.338Z,100187.44
2022-08-10T02:26:40.486Z,100189.91
2022-08-10T02:29:14.384Z,100188.28
2022-08-10T02:31:47.499Z,100178.97
2022-08-10T02:34:26.637Z,100188.34
2022-08-10T02:37:00.624Z,100183.09
2022-08-10T02:39:34.352Z,100190.03
2022-08-10T02:45:02.061Z,100183.53
2022-08-10T02:45:26.272Z,100177.09
2022-08-10T02:48:07.663Z,100179.56
2022-08-10T02:50:45.945Z,100188.53
2022-08-10T02:53:55.420Z,100179.19
2022-08-10T02:56:28.617Z,100186.94
2022-08-10T02:59:04.942Z,100180.00
2022-08-10T03:01:47.559Z,100188.53
2022-08-10T03:04:55.602Z,100191.38
2022-08-10T03:07:43.956Z,100191.00
2022-08-10T03:10:21.191Z,100198.75
2022-08-10T03:12:57.892Z,100188.59
2022-08-10T03:15:31.412Z,100197.16
2022-08-10T03:18:04.491Z,100191.44
2022-08-10T03:20:41.267Z,100193.91
2022-08-10T03:23:20.309Z,100192.75
2022-08-10T03:25:55.901Z,100195.22
2022-08-10T03:28:29.758Z,100199.28
2022-08-10T03:31:04.797Z,100191.53
2022-08-10T03:33:42.755Z,100196.00
2022-08-10T03:36:41.692Z,100202.53
2022-08-10T03:39:08.156Z,100201.31
2022-08-10T03:41:47.728Z,100200.09
2022-08-10T03:44:30.733Z,100197.25
2022-08-10T03:47:05.230Z,100194.84
2022-08-10T03:49:52.834Z,100200.09
2022-08-10T03:52:24.000Z,100193.59
2022-08-10T03:54:57.874Z,100191.53
2022-08-10T03:57:30.736Z,100203.38
2022-08-10T04:00:02.114Z,100194.03
2022-08-10T04:02:46.910Z,100194.84
2022-08-10T04:05:23.318Z,100200.13
2022-08-10T04:08:10.479Z,100201.75
2022-08-10T04:10:43.600Z,100211.47
2022-08-10T04:13:14.417Z,100210.25
2022-08-10T04:15:46.213Z,100205.38
2022-08-10T04:18:16.609Z,100206.97
2022-08-10T04:20:56.082Z,100202.47
2022-08-10T04:23:33.552Z,100213.00
2022-08-10T04:26:07.200Z,100216.63
2022-08-10T04:28:39.470Z,100217.00
2022-08-10T04:31:15.645Z,100218.19
2022-08-10T04:33:53.548Z,100221.41
2022-08-10T04:36:25.584Z,100219.72
2022-08-10T04:38:58.002Z,100222.53
2022-08-10T04:41:32.751Z,100227.75
2022-08-10T04:44:04.064Z,100220.00
2022-08-10T04:46:55.287Z,100217.06
2022-08-10T04:49:54.242Z,100221.97
2022-08-10T04:52:18.054Z,100217.91
2022-08-10T04:54:48.861Z,100221.47
2022-08-10T04:57:23.063Z,100214.47
2022-08-10T04:59:53.984Z,100214.44
2022-08-10T05:02:38.865Z,100218.00
2022-08-10T05:05:11.795Z,100215.56
2022-08-10T05:07:53.667Z,100218.34
2022-08-10T05:10:24.978Z,100222.75
2022-08-10T05:12:57.123Z,100223.91
2022-08-10T05:15:28.188Z,100223.50
2022-08-10T05:18:09.677Z,100225.91
2022-08-10T05:20:46.186Z,100227.06
2022-08-10T05:23:19.488Z,100225.78
2022-08-10T05:25:49.858Z,100231.44
2022-08-10T05:28:22.969Z,100227.28
2022-08-10T05:30:58.792Z,100222.28
2022-08-10T05:33:29.047Z,100229.13
2022-08-10T05:36:00.075Z,100227.38
2022-08-10T05:38:32.996Z,100225.25
2022-08-10T05:41:05.660Z,100233.31
2022-08-10T05:43:38.551Z,100234.06
2022-08-10T05:46:16.904Z,100238.09
2022-08-10T05:48:56.379Z,100237.63
2022-08-10T05:55:34.070Z,100248.25
2022-08-10T05:58:05.242Z,100252.19
2022-08-10T06:00:50.016Z,100246.34
2022-08-10T06:03:30.074Z,100256.00
2022-08-10T06:06:03.465Z,100258.78
2022-08-10T06:08:37.620Z,100259.09
2022-08-10T06:12:25.987Z,100263.03
2022-08-10T06:14:20.479Z,100264.59
2022-08-10T06:17:03.059Z,100262.09
2022-08-10T06:19:34.311Z,100255.94
2022-08-10T06:22:05.915Z,100265.25
2022-08-10T06:25:04.604Z,100268.41
2022-08-10T06:27:34.493Z,100258.06
2022-08-10T06:30:20.836Z,100255.88
2022-08-10T06:32:56.109Z,100260.97
2022-08-10T06:35:31.013Z,100253.13
2022-08-10T06:38:06.338Z,100257.16
2022-08-10T06:40:43.168Z,100256.72
2022-08-10T06:43:20.400Z,100258.31
2022-08-10T06:46:07.423Z,100259.47
2022-08-10T06:48:49.611Z,100264.72
2022-08-10T06:51:27.658Z,100264.53
2022-08-10T06:54:04.309Z,100259.09
2022-08-10T06:56:50.873Z,100255.72
2022-08-10T06:59:40.177Z,100262.16
2022-08-10T07:02:17.249Z,100258.75
2022-08-10T07:04:57.795Z,100261.09
2022-08-10T07:07:33.738Z,100260.13
2022-08-10T07:10:05.038Z,100264.50
2022-08-10T07:12:39.608Z,100270.50
2022-08-10T07:15:15.750Z,100264.16
2022-08-10T07:17:47.635Z,100266.50
2022-08-10T07:20:24.664Z,100261.81
2022-08-10T07:23:27.155Z,100260.84
2022-08-10T07:25:51.487Z,100269.69
2022-08-10T07:28:25.323Z,100264.22
2022-08-10T07:30:58.859Z,100269.50
2022-08-10T07:33:31.449Z,100259.22
2022-08-10T07:36:05.550Z,100266.50
2022-08-10T07:38:48.932Z,100268.44
2022-08-10T07:41:24.586Z,100256.19
2022-08-10T07:43:57.884Z,100256.09
2022-08-10T07:46:32.114Z,100261.34
2022-08-10T07:49:19.501Z,100250.38
2022-08-10T07:51:56.765Z,100258.16
2022-08-10T07:54:32.436Z,100253.25
2022-08-10T07:57:10.390Z,100262.06
2022-08-10T07:59:46.689Z,100258.66
2022-08-10T08:02:28.698Z,100254.38
2022-08-10T08:05:05.105Z,100248.91
2022-08-10T08:07:39.017Z,100251.66
2022-08-10T08:10:17.111Z,100258.41
2022-08-10T08:12:49.087Z,100255.84
2022-08-10T08:16:20.222Z,100258.94
2022-08-10T08:18:23.000Z,100255.50
2022-08-10T08:20:59.344Z,100258.28
2022-08-10T08:24:07.380Z,100250.38
2022-08-10T08:26:33.617Z,100246.63
2022-08-10T08:29:08.615Z,100244.78
2022-08-10T08:31:54.539Z,100246.28
2022-08-10T08:34:33.013Z,100248.59
2022-08-10T08:37:06.599Z,100234.06
2022-08-10T08:39:40.924Z,100244.53
2022-08-10T08:42:46.637Z,100230.44
2022-08-10T08:45:27.221Z,100229.53
2022-08-10T08:48:48.824Z,100240.88
2022-08-10T08:52:07.976Z,100242.00
2022-08-10T08:54:51.059Z,100230.91
2022-08-10T08:57:49.481Z,100221.38
2022-08-10T09:00:37.220Z,100218.88
2022-08-10T09:03:57.492Z,100223.81
2022-08-10T09:06:57.891Z,100221.72
2022-08-10T09:10:05.313Z,100224.47
2022-08-10T09:12:54.058Z,100215.44
2022-08-10T09:15:44.491Z,100221.16
2022-08-10T09:18:26.982Z,100222.06
2022-08-10T09:21:12.162Z,100211.09
2022-08-10T09:24:05.294Z,100215.09
2022-08-10T09:26:53.519Z,100210.84
2022-08-10T09:29:30.457Z,100209.13
2022-08-10T09:36:13.816Z,100210.72
2022-08-10T09:36:21.775Z,100208.31
2022-08-10T09:38:20.484Z,100203.38
2022-08-10T09:41:06.271Z,100200.88
2022-08-10T09:43:59.167Z,100197.09
2022-08-10T09:47:03.813Z,100201.22
2022-08-10T09:49:54.849Z,100200.41
2022-08-10T09:52:58.903Z,100200.75
2022-08-10T09:56:18.508Z,100203.97
2022-08-10T09:58:48.484Z,100199.00
2022-08-10T10:02:02.798Z,100202.69
2022-08-10T10:04:31.023Z,100193.75
2022-08-10T10:07:07.717Z,100191.34
2022-08-10T10:09:56.160Z,100195.97
2022-08-10T10:12:39.022Z,100198.47
2022-08-10T10:15:29.201Z,100188.28
2022-08-10T10:18:34.078Z,100195.72
2022-08-10T10:21:23.950Z,100195.72
2022-08-10T10:24:25.360Z,100187.91
2022-08-10T10:27:02.611Z,100189.53
2022-08-10T10:29:58.726Z,100188.72
2022-08-10T10:32:46.989Z,100184.28
2022-08-10T10:35:32.566Z,100182.66
2022-08-10T10:38:09.953Z,100173.38
2022-08-10T10:40:51.481Z,100181.19
2022-08-10T10:43:45.995Z,100183.34
2022-08-10T10:46:40.224Z,100173.63
2022-08-10T10:49:28.430Z,100181.38
2022-08-10T10:52:12.202Z,100172.34
2022-08-10T10:54:59.306Z,100179.22
2022-08-10T10:58:00.176Z,100178.75
2022-08-10T11:00:48.296Z,100173.16
2022-08-10T11:03:41.622Z,100171.66
2022-08-10T11:06:39.757Z,100176.25
2022-08-10T11:10:09.205Z,100168.13
2022-08-10T11:12:26.272Z,100175.44
2022-08-10T11:15:09.900Z,100172.13
2022-08-10T11:17:51.032Z,100176.13
2022-08-10T11:20:28.720Z,100174.06
2022-08-10T11:23:20.847Z,100166.75
2022-08-10T11:26:02.623Z,100176.59
2022-08-10T11:28:43.691Z,100163.06
2022-08-10T11:31:31.713Z,100163.88
2022-08-10T11:34:49.305Z,100164.31
2022-08-10T11:37:17.612Z,100162.84
2022-08-10T11:40:01.198Z,100157.59
2022-08-10T11:42:46.320Z,100154.72
2022-08-10T11:45:24.146Z,100159.19
2022-08-10T11:48:01.531Z,100149.78
2022-08-10T11:50:39.371Z,100149.00
2022-08-10T11:53:19.493Z,100149.44
2022-08-10T11:56:09.829Z,100149.09
2022-08-10T11:59:04.886Z,100149.22
2022-08-10T12:01:53.089Z,100138.91
2022-08-10T12:04:25.216Z,100143.00
2022-08-10T12:06:57.914Z,100136.13
2022-08-10T12:10:09.788Z,100149.28
2022-08-10T12:12:24.890Z,100137.50
2022-08-10T12:15:05.332Z,100135.09
2022-08-10T12:17:42.501Z,100136.72
2022-08-10T12:20:20.319Z,100132.13
2022-08-10T12:22:58.631Z,100132.13
2022-08-10T12:25:57.409Z,100127.66
2022-08-10T12:28:50.337Z,100124.44
2022-08-10T12:31:32.110Z,100126.63
2022-08-10T12:34:22.703Z,100126.28
2022-08-10T12:37:09.581Z,100126.75
2022-08-10T12:40:02.660Z,100125.94
2022-08-10T12:43:01.625Z,100134.97
2022-08-10T12:46:01.938Z,100129.38
2022-08-10T12:48:46.726Z,100122.94
2022-08-10T12:51:24.194Z,100127.88
2022-08-10T12:54:09.976Z,100130.75
2022-08-10T12:56:45.240Z,100129.94
2022-08-10T12:59:19.161Z,100127.53
2022-08-10T13:02:06.383Z,100131.66
2022-08-10T13:04:44.574Z,100130.03
2022-08-10T13:08:25.688Z,100129.69
2022-08-10T13:10:17.421Z,100126.59
2022-08-10T13:12:56.533Z,100117.22
2022-08-10T13:15:49.615Z,100124.63
2022-08-10T13:18:32.399Z,100127.59
2022-08-10T13:21:19.948Z,100130.13
2022-08-10T13:24:03.557Z,100132.16
2022-08-10T13:27:23.557Z,100133.88
2022-08-10T13:29:39.621Z,100129.88
2022-08-10T13:32:13.642Z,100136.03
2022-08-10T13:34:50.222Z,100131.69
2022-08-10T13:37:27.019Z,100133.03
2022-08-10T13:40:02.356Z,100124.13
2022-08-10T13:42:38.987Z,100126.19
2022-08-10T13:45:14.346Z,100123.91
2022-08-10T13:47:50.226Z,100130.50
2022-08-10T13:50:35.601Z,100122.41
2022-08-10T13:53:17.130Z,100129.38
2022-08-10T13:55:55.248Z,100130.63
2022-08-10T13:58:32.603Z,100123.75
2022-08-10T14:01:12.541Z,100125.91
2022-08-10T14:03:47.505Z,100130.47
2022-08-10T14:06:22.857Z,100130.88
2022-08-10T14:09:05.518Z,100132.13
2022-08-10T14:11:38.994Z,100123.22
2022-08-10T14:14:19.293Z,100135.56
2022-08-10T14:16:54.815Z,100131.31
2022-08-10T14:19:32.997Z,100121.91
2022-08-10T14:22:06.688Z,100120.41
2022-08-10T14:24:37.294Z,100127.84
2022-08-10T14:27:12.388Z,100118.56
2022-08-10T14:29:47.660Z,100115.00
2022-08-10T14:32:23.968Z,100113.03
2022-08-10T14:36:16.544Z,100123.69
2022-08-10T14:37:57.878Z,100113.94
2022-08-10T14:40:39.078Z,100110.75
2022-08-10T14:43:28.680Z,100109.56
2022-08-10T14:46:05.669Z,100108.88
2022-08-10T14:48:43.578Z,100108.06
2022-08-10T14:51:20.361Z,100106.47
2022-08-10T14:53:58.879Z,100115.38
2022-08-10T14:56:34.385Z,100104.03
2022-08-10T14:59:09.352Z,100106.97
2022-08-10T15:02:01.207Z,100103.78
2022-08-10T15:04:37.970Z,100109.13
2022-08-10T15:07:13.807Z,100113.59
2022-08-10T15:10:00.989Z,100115.66
2022-08-10T15:12:38.590Z,100111.66
2022-08-10T15:15:16.480Z,100113.69
2022-08-10T15:17:54.765Z,100114.25
2022-08-10T15:20:32.479Z,100116.75
2022-08-10T15:23:30.876Z,100110.66
2022-08-10T15:26:11.504Z,100109.94
2022-08-10T15:29:22.801Z,100108.00
2022-08-10T15:32:01.614Z,100113.00
2022-08-10T15:34:52.837Z,100114.34
2022-08-10T15:37:39.911Z,100121.41
2022-08-10T15:40:26.128Z,100121.03
2022-08-10T15:43:24.952Z,100121.50
2022-08-10T15:46:03.948Z,100125.22
2022-08-10T15:48:48.007Z,100131.75
2022-08-10T15:51:53.823Z,100123.97
2022-08-10T15:54:33.216Z,100126.06
2022-08-10T15:57:11.256Z,100124.44
2022-08-10T15:59:55.056Z,100121.66
2022-08-10T16:02:33.393Z,100134.03
2022-08-10T16:05:14.777Z,100136.63
2022-08-10T16:07:57.416Z,100141.59
2022-08-10T16:10:38.838Z,100147.78
2022-08-10T16:13:50.378Z,100154.72
2022-08-10T16:16:13.599Z,100149.00
2022-08-10T16:18:48.536Z,100146.97
2022-08-10T16:21:23.864Z,100146.97
2022-08-10T16:24:14.593Z,100150.63
2022-08-10T16:26:55.393Z,100147.78
2022-08-10T16:29:29.650Z,100147.78
2022-08-10T16:32:06.379Z,100150.63
2022-08-10T16:34:42.333Z,100151.06
2022-08-10T16:37:16.994Z,100155.97
2022-08-10T16:40:00.256Z,100159.28
2022-08-10T16:42:36.262Z,100165.06
2022-08-10T16:45:12.766Z,100162.31
2022-08-10T16:47:51.059Z,100154.63
2022-08-10T16:50:29.335Z,100166.81
2022-08-10T16:53:05.841Z,100172.97
2022-08-10T16:55:48.123Z,100167.72
2022-08-10T16:58:28.002Z,100171.00
2022-08-10T17:01:06.585Z,100173.84
2022-08-10T17:04:08.087Z,100183.25
2022-08-10T17:06:44.631Z,100183.66
2022-08-10T17:09:21.699Z,100182.88
2022-08-10T17:11:57.001Z,100194.28
2022-08-10T17:14:32.234Z,100191.88
2022-08-10T17:17:10.651Z,100200.06
2022-08-10T17:19:47.880Z,100204.16
2022-08-10T17:22:23.196Z,100195.25
2022-08-10T17:25:00.779Z,100203.44
2022-08-10T17:28:05.447Z,100201.81
2022-08-10T17:30:36.912Z,100194.50
2022-08-10T17:33:31.175Z,100204.31
2022-08-10T17:36:07.580Z,100212.03
2022-08-10T17:38:41.723Z,100204.31
2022-08-10T17:41:15.661Z,100212.03
2022-08-10T17:44:02.098Z,100209.19
2022-08-10T17:46:39.341Z,100210.06
2022-08-10T17:49:13.968Z,100214.97
2022-08-10T17:51:54.464Z,100214.19
2022-08-10T17:54:32.584Z,100209.72
2022-08-10T17:57:09.708Z,100210.50
2022-08-10T17:59:42.850Z,100208.91
2022-08-10T18:02:20.276Z,100213.38
2022-08-10T18:04:54.585Z,100212.56
2022-08-10T18:07:39.040Z,100216.22
2022-08-10T18:10:17.250Z,100217.47
2022-08-10T18:12:55.094Z,100215.44
2022-08-10T18:15:33.008Z,100223.97
2022-08-10T18:18:06.837Z,100211.38
2022-08-10T18:20:39.881Z,100218.31
2022-08-10T18:23:13.892Z,100221.25
2022-08-10T18:25:48.815Z,100218.06
2022-08-10T18:28:24.052Z,100223.78
2022-08-10T18:30:58.150Z,100226.16
2022-08-10T18:33:33.463Z,100224.13
2022-08-10T18:36:08.393Z,100222.09
2022-08-10T18:38:47.586Z,100223.69
2022-08-10T18:41:25.778Z,100223.31
2022-08-10T18:44:09.882Z,100224.19
2022-08-10T18:46:52.537Z,100231.13
2022-08-10T18:49:33.868Z,100224.19
2022-08-10T18:52:10.318Z,100220.97
2022-08-10T18:54:52.657Z,100223.81
2022-08-10T18:57:42.797Z,100223.41
2022-08-10T19:00:17.473Z,100230.34
2022-08-10T19:03:53.517Z,100233.63
2022-08-10T19:07:03.330Z,100238.59
2022-08-10T19:10:08.200Z,100236.53
2022-08-10T19:12:59.286Z,100235.00
2022-08-10T19:15:41.342Z,100231.00
2022-08-10T19:18:37.905Z,100231.88
2022-08-10T19:21:24.079Z,100227.06
2022-08-10T19:24:15.039Z,100223.38
2022-08-10T19:27:14.405Z,100219.75
2022-08-10T19:30:13.246Z,100220.53
2022-08-10T19:33:24.554Z,100218.50
2022-08-10T19:36:21.386Z,100215.66
2022-08-10T19:39:08.454Z,100213.13
2022-08-10T19:41:54.673Z,100203.34
2022-08-10T19:44:45.325Z,100203.34
2022-08-10T19:47:31.705Z,100202.19
2022-08-10T19:50:17.540Z,100196.47
2022-08-10T19:53:07.142Z,100200.16
2022-08-10T19:55:51.391Z,100188.38
2022-08-10T19:58:37.897Z,100191.66
2022-08-10T20:01:11.298Z,100194.94
2022-08-10T20:03:54.476Z,100190.84
2022-08-10T20:06:47.137Z,100182.31
2022-08-10T20:09:31.318Z,100179.00
2022-08-10T20:12:08.934Z,100177.75
2022-08-10T20:14:54.533Z,100180.97
2022-08-10T20:17:51.607Z,100179.75
2022-08-10T20:20:31.754Z,100183.38
2022-08-10T20:23:19.263Z,100176.91
2022-08-10T20:26:00.597Z,100178.13
2022-08-10T20:28:44.215Z,100176.06
2022-08-10T20:31:38.867Z,100171.66
2022-08-10T20:34:19.180Z,100170.81
2022-08-10T20:37:00.281Z,100173.66
2022-08-10T20:39:50.089Z,100170.81
2022-08-10T20:42:30.898Z,100165.94
2022-08-10T20:45:10.078Z,100174.84
2022-08-10T20:47:59.345Z,100169.13
2022-08-10T20:50:39.772Z,100167.09
2022-08-10T20:53:16.355Z,100165.03
2022-08-10T20:56:02.477Z,100160.16
2022-08-10T20:59:09.392Z,100159.34
2022-08-10T21:02:07.439Z,100159.41
2022-08-10T21:04:58.950Z,100152.56
2022-08-10T21:08:01.803Z,100161.91
2022-08-10T21:11:01.070Z,100148.47
2022-08-10T21:14:14.419Z,100146.84
2022-08-10T21:17:11.504Z,100154.59
2022-08-10T21:20:14.190Z,100152.19
2022-08-10T21:22:50.113Z,100151.81
2022-08-10T21:25:29.725Z,100153.06
2022-08-10T21:28:30.171Z,100151.44
2022-08-10T21:31:45.607Z,100154.28
2022-08-10T21:34:54.184Z,100148.59
2022-08-10T21:37:40.341Z,100147.00
2022-08-10T21:44:18.250Z,100149.84
2022-08-10T21:47:39.650Z,100152.72
2022-08-10T21:50:28.780Z,100147.44
2022-08-10T21:53:44.807Z,100149.50
2022-08-10T21:56:46.931Z,100153.56
2022-08-10T21:59:49.540Z,100145.03
2022-08-10T22:05:56.882Z,100139.31
2022-08-10T22:08:57.598Z,100142.97
2022-08-10T22:11:49.123Z,100139.31
2022-08-10T22:14:46.237Z,100127.91
2022-08-10T22:17:59.793Z,100140.97
2022-08-10T22:20:49.621Z,100136.53
2022-08-10T22:24:16.784Z,100138.19
2022-08-10T22:27:47.224Z,100140.25
2022-08-10T22:30:37.275Z,100141.47
2022-08-10T22:31:25.112Z,100156.34
2022-08-10T22:33:49.763Z,100147.56
2022-08-10T22:37:09.201Z,100144.69
2022-08-10T22:40:19.502Z,100145.94
2022-08-10T22:43:13.027Z,100138.63
2022-08-10T22:46:10.887Z,100136.16
2022-08-10T22:49:00.677Z,100139.78
2022-08-10T22:51:48.115Z,100143.88
2022-08-10T22:54:42.080Z,100141.84
2022-08-10T22:57:35.921Z,100138.19
2022-08-10T23:00:31.233Z,100133.75
2022-08-10T23:03:15.260Z,100134.53
2022-08-10T23:05:58.428Z,100132.47
2022-08-10T23:08:36.828Z,100137.75
2022-08-10T23:11:11.241Z,100134.91
2022-08-10T23:13:49.781Z,100134.91
2022-08-10T23:16:42.964Z,100140.59
2022-08-10T23:19:23.309Z,100129.63
2022-08-10T23:22:04.140Z,100137.38
2022-08-10T23:24:40.707Z,100137.38
2022-08-10T23:27:38.372Z,100133.75
2022-08-10T23:30:17.012Z,100130.53
2022-08-10T23:32:51.628Z,100129.69
2022-08-10T23:36:13.017Z,100126.06
2022-08-10T23:38:23.413Z,100139.16
2022-08-10T23:40:57.504Z,100141.19
2022-08-10T23:44:02.442Z,100138.78
2022-08-10T23:46:30.867Z,100145.34
2022-08-10T23:49:04.905Z,100143.31
2022-08-10T23:51:56.219Z,100146.16
2022-08-10T23:54:28.600Z,100155.13
2022-08-10T23:57:03.165Z,100149.44
2022-08-10T23:59:36.650Z,100144.56
